Webcam

2019/06/18 08:20 EBBR 180820Z VRB02KT CAVOK 21/16 Q1015 NOSIG

Webcam

--- Refresh now ---